sensor_id;sensor_type;location;lat;lon;timestamp;P1;durP1;ratioP1;P2;durP2;ratioP2
36745;SDS011;22715;52.182;21.206;2023-02-08T00:02:00;32.95;;;18.65;;
36745;SDS011;22715;52.182;21.206;2023-02-08T00:04:25;33.25;;;17.88;;
36745;SDS011;22715;52.182;21.206;2023-02-08T00:06:50;37.70;;;22.45;;
36745;SDS011;22715;52.182;21.206;2023-02-08T00:09:16;29.67;;;16.92;;
36745;SDS011;22715;52.182;21.206;2023-02-08T00:11:41;30.30;;;16.92;;
36745;SDS011;22715;52.182;21.206;2023-02-08T00:14:06;32.05;;;16.25;;
36745;SDS011;22715;52.182;21.206;2023-02-08T00:16:33;33.72;;;17.02;;
36745;SDS011;22715;52.182;21.206;2023-02-08T00:18:58;39.58;;;19.63;;
36745;SDS011;22715;52.182;21.206;2023-02-08T00:21:23;29.58;;;15.50;;
36745;SDS011;22715;52.182;21.206;2023-02-08T00:23:48;29.45;;;16.52;;
36745;SDS011;22715;52.182;21.206;2023-02-08T00:26:14;36.88;;;18.20;;
36745;SDS011;22715;52.182;21.206;2023-02-08T00:28:40;27.40;;;16.10;;
36745;SDS011;22715;52.182;21.206;2023-02-08T00:31:05;23.67;;;14.70;;
36745;SDS011;22715;52.182;21.206;2023-02-08T00:33:31;35.95;;;19.85;;
36745;SDS011;22715;52.182;21.206;2023-02-08T00:36:00;33.72;;;16.65;;
36745;SDS011;22715;52.182;21.206;2023-02-08T00:38:26;35.50;;;16.30;;
36745;SDS011;22715;52.182;21.206;2023-02-08T00:40:51;31.23;;;17.95;;
36745;SDS011;22715;52.182;21.206;2023-02-08T00:43:16;29.90;;;16.75;;
36745;SDS011;22715;52.182;21.206;2023-02-08T00:45:42;35.60;;;17.92;;
36745;SDS011;22715;52.182;21.206;2023-02-08T00:48:10;35.95;;;17.48;;
36745;SDS011;22715;52.182;21.206;2023-02-08T00:50:35;29.92;;;17.17;;
36745;SDS011;22715;52.182;21.206;2023-02-08T00:53:01;28.13;;;17.45;;
36745;SDS011;22715;52.182;21.206;2023-02-08T00:55:26;41.30;;;18.73;;
36745;SDS011;22715;52.182;21.206;2023-02-08T00:57:51;37.45;;;16.70;;
36745;SDS011;22715;52.182;21.206;2023-02-08T01:00:17;39.40;;;19.55;;
36745;SDS011;22715;52.182;21.206;2023-02-08T01:02:42;34.42;;;18.73;;
36745;SDS011;22715;52.182;21.206;2023-02-08T01:05:07;34.47;;;18.70;;
36745;SDS011;22715;52.182;21.206;2023-02-08T01:07:34;39.08;;;22.95;;
36745;SDS011;22715;52.182;21.206;2023-02-08T01:10:00;42.38;;;19.17;;
36745;SDS011;22715;52.182;21.206;2023-02-08T01:12:25;40.47;;;20.02;;
36745;SDS011;22715;52.182;21.206;2023-02-08T01:14:50;33.70;;;17.33;;
36745;SDS011;22715;52.182;21.206;2023-02-08T01:17:16;29.38;;;17.85;;
36745;SDS011;22715;52.182;21.206;2023-02-08T01:19:41;32.75;;;19.15;;
36745;SDS011;22715;52.182;21.206;2023-02-08T01:22:06;34.97;;;19.73;;
36745;SDS011;22715;52.182;21.206;2023-02-08T01:24:32;35.08;;;19.55;;
36745;SDS011;22715;52.182;21.206;2023-02-08T01:26:57;35.88;;;19.38;;
36745;SDS011;22715;52.182;21.206;2023-02-08T01:29:22;30.13;;;19.20;;
36745;SDS011;22715;52.182;21.206;2023-02-08T01:31:48;42.08;;;21.98;;
36745;SDS011;22715;52.182;21.206;2023-02-08T01:34:13;29.70;;;18.38;;
36745;SDS011;22715;52.182;21.206;2023-02-08T01:36:38;34.92;;;18.40;;
36745;SDS011;22715;52.182;21.206;2023-02-08T01:39:04;37.58;;;19.42;;
36745;SDS011;22715;52.182;21.206;2023-02-08T01:41:31;35.03;;;19.23;;
36745;SDS011;22715;52.182;21.206;2023-02-08T01:49:05;34.75;;;19.40;;
36745;SDS011;22715;52.182;21.206;2023-02-08T01:51:36;39.30;;;18.83;;
36745;SDS011;22715;52.182;21.206;2023-02-08T01:54:03;33.03;;;21.13;;
36745;SDS011;22715;52.182;21.206;2023-02-08T01:56:30;43.67;;;20.15;;
36745;SDS011;22715;52.182;21.206;2023-02-08T01:58:57;37.70;;;19.02;;
36745;SDS011;22715;52.182;21.206;2023-02-08T02:01:24;32.83;;;20.45;;
36745;SDS011;22715;52.182;21.206;2023-02-08T02:03:50;40.45;;;19.75;;
36745;SDS011;22715;52.182;21.206;2023-02-08T02:06:17;35.22;;;21.23;;
36745;SDS011;22715;52.182;21.206;2023-02-08T02:08:48;32.35;;;20.90;;
36745;SDS011;22715;52.182;21.206;2023-02-08T02:11:15;36.03;;;20.23;;
36745;SDS011;22715;52.182;21.206;2023-02-08T02:13:41;33.28;;;20.10;;
36745;SDS011;22715;52.182;21.206;2023-02-08T02:16:06;43.30;;;21.75;;
36745;SDS011;22715;52.182;21.206;2023-02-08T02:18:32;37.10;;;18.90;;
36745;SDS011;22715;52.182;21.206;2023-02-08T02:23:50;38.60;;;19.55;;
36745;SDS011;22715;52.182;21.206;2023-02-08T02:39:38;39.95;;;21.17;;
36745;SDS011;22715;52.182;21.206;2023-02-08T02:50:44;34.47;;;20.08;;
36745;SDS011;22715;52.182;21.206;2023-02-08T02:53:19;36.05;;;20.10;;
36745;SDS011;22715;52.182;21.206;2023-02-08T02:55:50;45.38;;;19.48;;
36745;SDS011;22715;52.182;21.206;2023-02-08T02:58:18;38.53;;;18.88;;
36745;SDS011;22715;52.182;21.206;2023-02-08T03:00:43;36.10;;;20.70;;
36745;SDS011;22715;52.182;21.206;2023-02-08T03:03:16;35.28;;;19.85;;
36745;SDS011;22715;52.182;21.206;2023-02-08T03:05:45;42.47;;;21.73;;
36745;SDS011;22715;52.182;21.206;2023-02-08T03:08:14;33.30;;;21.00;;
36745;SDS011;22715;52.182;21.206;2023-02-08T03:15:57;37.13;;;19.35;;
36745;SDS011;22715;52.182;21.206;2023-02-08T03:21:09;36.92;;;19.73;;
36745;SDS011;22715;52.182;21.206;2023-02-08T03:26:07;36.00;;;19.02;;
36745;SDS011;22715;52.182;21.206;2023-02-08T03:28:39;35.70;;;19.48;;
36745;SDS011;22715;52.182;21.206;2023-02-08T03:31:10;38.22;;;18.55;;
36745;SDS011;22715;52.182;21.206;2023-02-08T03:38:57;38.47;;;22.33;;
36745;SDS011;22715;52.182;21.206;2023-02-08T03:41:28;37.83;;;20.17;;
36745;SDS011;22715;52.182;21.206;2023-02-08T03:44:02;32.08;;;17.80;;
36745;SDS011;22715;52.182;21.206;2023-02-08T03:46:30;32.33;;;19.85;;
36745;SDS011;22715;52.182;21.206;2023-02-08T03:49:01;34.22;;;20.10;;
36745;SDS011;22715;52.182;21.206;2023-02-08T03:51:28;34.83;;;19.10;;
36745;SDS011;22715;52.182;21.206;2023-02-08T03:53:54;42.00;;;20.27;;
36745;SDS011;22715;52.182;21.206;2023-02-08T03:56:27;37.78;;;21.27;;
36745;SDS011;22715;52.182;21.206;2023-02-08T03:58:58;39.05;;;22.40;;
36745;SDS011;22715;52.182;21.206;2023-02-08T04:01:26;34.33;;;19.35;;
36745;SDS011;22715;52.182;21.206;2023-02-08T04:03:53;33.78;;;20.85;;
36745;SDS011;22715;52.182;21.206;2023-02-08T04:06:23;34.85;;;19.35;;
36745;SDS011;22715;52.182;21.206;2023-02-08T04:08:48;35.40;;;19.35;;
36745;SDS011;22715;52.182;21.206;2023-02-08T04:11:17;36.92;;;19.77;;
36745;SDS011;22715;52.182;21.206;2023-02-08T04:13:43;37.20;;;19.85;;
36745;SDS011;22715;52.182;21.206;2023-02-08T04:16:10;38.72;;;19.90;;
36745;SDS011;22715;52.182;21.206;2023-02-08T04:18:35;36.63;;;19.20;;
36745;SDS011;22715;52.182;21.206;2023-02-08T04:21:01;32.58;;;18.08;;
36745;SDS011;22715;52.182;21.206;2023-02-08T04:23:26;43.30;;;21.13;;
36745;SDS011;22715;52.182;21.206;2023-02-08T04:25:51;35.92;;;18.48;;
36745;SDS011;22715;52.182;21.206;2023-02-08T04:28:16;38.78;;;21.67;;
36745;SDS011;22715;52.182;21.206;2023-02-08T04:30:42;34.50;;;18.77;;
36745;SDS011;22715;52.182;21.206;2023-02-08T04:33:10;33.25;;;19.20;;
36745;SDS011;22715;52.182;21.206;2023-02-08T04:35:40;39.03;;;20.93;;
36745;SDS011;22715;52.182;21.206;2023-02-08T04:38:06;36.85;;;21.77;;
36745;SDS011;22715;52.182;21.206;2023-02-08T04:40:31;37.45;;;19.00;;
36745;SDS011;22715;52.182;21.206;2023-02-08T04:42:57;45.20;;;19.67;;
36745;SDS011;22715;52.182;21.206;2023-02-08T04:45:22;34.95;;;19.58;;
36745;SDS011;22715;52.182;21.206;2023-02-08T04:47:47;35.17;;;18.92;;
36745;SDS011;22715;52.182;21.206;2023-02-08T04:50:13;40.45;;;19.63;;
36745;SDS011;22715;52.182;21.206;2023-02-08T04:52:38;37.05;;;20.45;;
36745;SDS011;22715;52.182;21.206;2023-02-08T04:55:03;36.50;;;20.55;;
36745;SDS011;22715;52.182;21.206;2023-02-08T04:57:29;36.05;;;19.77;;
36745;SDS011;22715;52.182;21.206;2023-02-08T04:59:54;34.25;;;18.20;;
36745;SDS011;22715;52.182;21.206;2023-02-08T05:02:20;39.30;;;18.80;;
36745;SDS011;22715;52.182;21.206;2023-02-08T05:04:45;35.83;;;18.02;;
36745;SDS011;22715;52.182;21.206;2023-02-08T05:07:10;37.67;;;19.33;;
36745;SDS011;22715;52.182;21.206;2023-02-08T05:09:35;40.83;;;20.38;;
36745;SDS011;22715;52.182;21.206;2023-02-08T05:12:01;33.13;;;19.58;;
36745;SDS011;22715;52.182;21.206;2023-02-08T05:14:26;36.35;;;19.55;;
36745;SDS011;22715;52.182;21.206;2023-02-08T05:16:51;38.58;;;19.70;;
36745;SDS011;22715;52.182;21.206;2023-02-08T05:19:17;35.15;;;17.98;;
36745;SDS011;22715;52.182;21.206;2023-02-08T05:21:42;41.30;;;20.00;;
36745;SDS011;22715;52.182;21.206;2023-02-08T05:24:07;41.88;;;19.05;;
36745;SDS011;22715;52.182;21.206;2023-02-08T05:26:36;33.75;;;18.00;;
36745;SDS011;22715;52.182;21.206;2023-02-08T05:29:02;33.78;;;18.67;;
36745;SDS011;22715;52.182;21.206;2023-02-08T05:31:27;35.30;;;16.60;;
36745;SDS011;22715;52.182;21.206;2023-02-08T05:33:52;35.88;;;18.50;;
36745;SDS011;22715;52.182;21.206;2023-02-08T05:36:18;41.25;;;21.40;;
36745;SDS011;22715;52.182;21.206;2023-02-08T05:38:43;43.55;;;20.23;;
36745;SDS011;22715;52.182;21.206;2023-02-08T05:41:09;31.77;;;18.52;;
36745;SDS011;22715;52.182;21.206;2023-02-08T05:43:34;28.70;;;17.23;;
36745;SDS011;22715;52.182;21.206;2023-02-08T05:45:59;33.42;;;20.48;;
36745;SDS011;22715;52.182;21.206;2023-02-08T05:48:25;34.70;;;18.02;;
36745;SDS011;22715;52.182;21.206;2023-02-08T05:50:50;31.20;;;18.25;;
36745;SDS011;22715;52.182;21.206;2023-02-08T05:53:15;39.22;;;18.15;;
36745;SDS011;22715;52.182;21.206;2023-02-08T05:55:44;34.75;;;18.40;;
36745;SDS011;22715;52.182;21.206;2023-02-08T05:58:10;33.28;;;18.85;;
36745;SDS011;22715;52.182;21.206;2023-02-08T06:00:35;36.58;;;18.25;;
36745;SDS011;22715;52.182;21.206;2023-02-08T06:03:01;29.30;;;16.45;;
36745;SDS011;22715;52.182;21.206;2023-02-08T06:05:26;31.35;;;18.15;;
36745;SDS011;22715;52.182;21.206;2023-02-08T06:07:52;33.53;;;19.27;;
36745;SDS011;22715;52.182;21.206;2023-02-08T06:10:17;34.88;;;18.58;;
36745;SDS011;22715;52.182;21.206;2023-02-08T06:12:42;35.67;;;16.48;;
36745;SDS011;22715;52.182;21.206;2023-02-08T06:15:08;30.88;;;17.30;;
36745;SDS011;22715;52.182;21.206;2023-02-08T06:17:33;27.73;;;17.52;;
36745;SDS011;22715;52.182;21.206;2023-02-08T06:19:58;36.63;;;18.30;;
36745;SDS011;22715;52.182;21.206;2023-02-08T06:22:24;30.52;;;18.45;;
36745;SDS011;22715;52.182;21.206;2023-02-08T06:24:49;33.08;;;17.23;;
36745;SDS011;22715;52.182;21.206;2023-02-08T06:27:14;27.50;;;15.90;;
36745;SDS011;22715;52.182;21.206;2023-02-08T06:29:40;28.52;;;17.23;;
36745;SDS011;22715;52.182;21.206;2023-02-08T06:32:07;32.03;;;15.55;;
36745;SDS011;22715;52.182;21.206;2023-02-08T06:34:33;25.77;;;15.95;;
36745;SDS011;22715;52.182;21.206;2023-02-08T06:36:58;25.77;;;14.40;;
36745;SDS011;22715;52.182;21.206;2023-02-08T06:39:34;24.50;;;15.00;;
36745;SDS011;22715;52.182;21.206;2023-02-08T06:41:59;28.50;;;15.57;;
36745;SDS011;22715;52.182;21.206;2023-02-08T06:44:25;30.55;;;17.63;;
36745;SDS011;22715;52.182;21.206;2023-02-08T06:46:50;20.67;;;12.57;;
36745;SDS011;22715;52.182;21.206;2023-02-08T06:49:15;27.85;;;14.68;;
36745;SDS011;22715;52.182;21.206;2023-02-08T06:51:43;21.23;;;12.75;;
36745;SDS011;22715;52.182;21.206;2023-02-08T06:54:08;26.40;;;14.75;;
36745;SDS011;22715;52.182;21.206;2023-02-08T06:56:34;28.30;;;12.40;;
36745;SDS011;22715;52.182;21.206;2023-02-08T06:58:59;23.83;;;12.45;;
36745;SDS011;22715;52.182;21.206;2023-02-08T07:01:24;19.45;;;11.18;;
36745;SDS011;22715;52.182;21.206;2023-02-08T07:03:50;22.00;;;13.10;;
36745;SDS011;22715;52.182;21.206;2023-02-08T07:06:16;19.92;;;10.90;;
36745;SDS011;22715;52.182;21.206;2023-02-08T07:08:41;20.05;;;10.32;;
36745;SDS011;22715;52.182;21.206;2023-02-08T07:11:07;22.30;;;10.88;;
36745;SDS011;22715;52.182;21.206;2023-02-08T07:13:32;20.88;;;11.18;;
36745;SDS011;22715;52.182;21.206;2023-02-08T07:15:58;20.40;;;12.05;;
36745;SDS011;22715;52.182;21.206;2023-02-08T07:18:23;22.92;;;10.43;;
36745;SDS011;22715;52.182;21.206;2023-02-08T07:20:48;18.27;;;10.10;;
36745;SDS011;22715;52.182;21.206;2023-02-08T07:23:13;23.10;;;10.13;;
36745;SDS011;22715;52.182;21.206;2023-02-08T07:25:39;25.55;;;12.15;;
36745;SDS011;22715;52.182;21.206;2023-02-08T07:28:04;24.30;;;11.45;;
36745;SDS011;22715;52.182;21.206;2023-02-08T07:30:29;25.00;;;13.23;;
36745;SDS011;22715;52.182;21.206;2023-02-08T07:32:54;20.75;;;11.88;;
36745;SDS011;22715;52.182;21.206;2023-02-08T07:35:20;17.20;;;10.00;;
36745;SDS011;22715;52.182;21.206;2023-02-08T07:37:45;18.33;;;10.35;;
36745;SDS011;22715;52.182;21.206;2023-02-08T07:40:10;19.67;;;8.98;;
36745;SDS011;22715;52.182;21.206;2023-02-08T07:42:36;12.82;;;7.88;;
36745;SDS011;22715;52.182;21.206;2023-02-08T07:45:01;17.00;;;8.68;;
36745;SDS011;22715;52.182;21.206;2023-02-08T07:47:28;19.63;;;9.75;;
36745;SDS011;22715;52.182;21.206;2023-02-08T07:49:53;17.23;;;8.23;;
36745;SDS011;22715;52.182;21.206;2023-02-08T07:52:18;14.35;;;8.55;;
36745;SDS011;22715;52.182;21.206;2023-02-08T07:54:44;20.42;;;9.77;;
36745;SDS011;22715;52.182;21.206;2023-02-08T07:57:09;16.63;;;8.95;;
36745;SDS011;22715;52.182;21.206;2023-02-08T07:59:34;16.35;;;9.43;;
36745;SDS011;22715;52.182;21.206;2023-02-08T08:02:00;15.02;;;8.98;;
36745;SDS011;22715;52.182;21.206;2023-02-08T08:04:25;24.67;;;9.52;;
36745;SDS011;22715;52.182;21.206;2023-02-08T08:06:50;17.58;;;8.88;;
36745;SDS011;22715;52.182;21.206;2023-02-08T08:09:17;13.45;;;8.88;;
36745;SDS011;22715;52.182;21.206;2023-02-08T08:11:44;13.32;;;9.00;;
36745;SDS011;22715;52.182;21.206;2023-02-08T08:14:09;14.82;;;8.30;;
36745;SDS011;22715;52.182;21.206;2023-02-08T08:16:35;13.40;;;8.93;;
36745;SDS011;22715;52.182;21.206;2023-02-08T08:19:20;12.85;;;7.78;;
36745;SDS011;22715;52.182;21.206;2023-02-08T08:21:45;12.38;;;7.40;;
36745;SDS011;22715;52.182;21.206;2023-02-08T08:24:11;23.65;;;9.27;;
36745;SDS011;22715;52.182;21.206;2023-02-08T08:26:36;14.40;;;8.00;;
36745;SDS011;22715;52.182;21.206;2023-02-08T08:29:01;20.20;;;8.77;;
36745;SDS011;22715;52.182;21.206;2023-02-08T08:31:26;18.27;;;9.52;;
36745;SDS011;22715;52.182;21.206;2023-02-08T08:33:52;20.60;;;9.07;;
36745;SDS011;22715;52.182;21.206;2023-02-08T08:36:17;17.48;;;8.13;;
36745;SDS011;22715;52.182;21.206;2023-02-08T08:38:42;15.82;;;9.30;;
36745;SDS011;22715;52.182;21.206;2023-02-08T08:41:08;17.00;;;7.68;;
36745;SDS011;22715;52.182;21.206;2023-02-08T08:43:34;17.38;;;9.35;;
36745;SDS011;22715;52.182;21.206;2023-02-08T08:45:59;15.20;;;8.27;;
36745;SDS011;22715;52.182;21.206;2023-02-08T08:48:25;12.68;;;7.68;;
36745;SDS011;22715;52.182;21.206;2023-02-08T08:50:54;15.07;;;8.23;;
36745;SDS011;22715;52.182;21.206;2023-02-08T08:53:20;16.92;;;8.45;;
36745;SDS011;22715;52.182;21.206;2023-02-08T08:55:46;15.95;;;8.23;;
36745;SDS011;22715;52.182;21.206;2023-02-08T08:58:11;13.68;;;9.13;;
36745;SDS011;22715;52.182;21.206;2023-02-08T09:00:36;14.25;;;8.65;;
36745;SDS011;22715;52.182;21.206;2023-02-08T09:03:02;15.48;;;8.98;;
36745;SDS011;22715;52.182;21.206;2023-02-08T09:05:27;16.15;;;9.30;;
36745;SDS011;22715;52.182;21.206;2023-02-08T09:07:52;17.02;;;8.50;;
36745;SDS011;22715;52.182;21.206;2023-02-08T09:10:18;13.20;;;8.18;;
36745;SDS011;22715;52.182;21.206;2023-02-08T09:12:43;13.32;;;7.63;;
36745;SDS011;22715;52.182;21.206;2023-02-08T09:15:09;14.93;;;7.93;;
36745;SDS011;22715;52.182;21.206;2023-02-08T09:17:35;12.13;;;7.30;;
36745;SDS011;22715;52.182;21.206;2023-02-08T09:20:01;15.63;;;7.43;;
36745;SDS011;22715;52.182;21.206;2023-02-08T09:22:26;11.80;;;8.00;;
36745;SDS011;22715;52.182;21.206;2023-02-08T09:27:49;9.52;;;6.40;;
36745;SDS011;22715;52.182;21.206;2023-02-08T09:30:14;16.60;;;7.82;;
36745;SDS011;22715;52.182;21.206;2023-02-08T09:32:40;12.70;;;7.15;;
36745;SDS011;22715;52.182;21.206;2023-02-08T09:35:06;14.75;;;7.25;;
36745;SDS011;22715;52.182;21.206;2023-02-08T09:48:13;8.20;;;5.53;;
36745;SDS011;22715;52.182;21.206;2023-02-08T09:50:47;8.93;;;5.35;;
36745;SDS011;22715;52.182;21.206;2023-02-08T09:53:19;9.85;;;6.75;;
36745;SDS011;22715;52.182;21.206;2023-02-08T09:55:46;11.38;;;6.70;;
36745;SDS011;22715;52.182;21.206;2023-02-08T09:58:21;9.10;;;4.70;;
36745;SDS011;22715;52.182;21.206;2023-02-08T10:00:50;13.13;;;6.40;;
36745;SDS011;22715;52.182;21.206;2023-02-08T10:06:00;8.20;;;5.25;;
36745;SDS011;22715;52.182;21.206;2023-02-08T10:08:26;11.32;;;5.90;;
36745;SDS011;22715;52.182;21.206;2023-02-08T10:10:53;8.15;;;4.45;;
36745;SDS011;22715;52.182;21.206;2023-02-08T10:15:58;5.45;;;3.00;;
36745;SDS011;22715;52.182;21.206;2023-02-08T10:18:44;4.70;;;2.45;;
36745;SDS011;22715;52.182;21.206;2023-02-08T10:26:13;5.53;;;3.00;;
36745;SDS011;22715;52.182;21.206;2023-02-08T10:31:25;7.28;;;3.80;;
36745;SDS011;22715;52.182;21.206;2023-02-08T10:36:38;2.95;;;1.70;;
36745;SDS011;22715;52.182;21.206;2023-02-08T10:39:17;2.45;;;2.17;;
36745;SDS011;22715;52.182;21.206;2023-02-08T10:41:43;3.97;;;2.40;;
36745;SDS011;22715;52.182;21.206;2023-02-08T10:46:40;2.63;;;1.77;;
36745;SDS011;22715;52.182;21.206;2023-02-08T10:49:16;1.75;;;1.50;;
36745;SDS011;22715;52.182;21.206;2023-02-08T10:51:44;2.60;;;1.40;;
36745;SDS011;22715;52.182;21.206;2023-02-08T10:54:12;3.70;;;1.88;;
36745;SDS011;22715;52.182;21.206;2023-02-08T10:56:41;3.33;;;1.27;;
36745;SDS011;22715;52.182;21.206;2023-02-08T11:01:42;4.85;;;3.15;;
36745;SDS011;22715;52.182;21.206;2023-02-08T11:04:09;5.60;;;2.83;;
36745;SDS011;22715;52.182;21.206;2023-02-08T11:06:35;7.20;;;2.55;;
36745;SDS011;22715;52.182;21.206;2023-02-08T11:09:00;4.72;;;3.53;;
36745;SDS011;22715;52.182;21.206;2023-02-08T11:11:26;3.03;;;2.00;;
36745;SDS011;22715;52.182;21.206;2023-02-08T11:14:08;6.40;;;3.00;;
36745;SDS011;22715;52.182;21.206;2023-02-08T11:16:33;4.53;;;2.60;;
36745;SDS011;22715;52.182;21.206;2023-02-08T11:18:59;4.05;;;2.70;;
36745;SDS011;22715;52.182;21.206;2023-02-08T11:21:38;6.38;;;1.98;;
36745;SDS011;22715;52.182;21.206;2023-02-08T11:26:39;3.28;;;1.90;;
36745;SDS011;22715;52.182;21.206;2023-02-08T11:29:13;7.70;;;2.38;;
36745;SDS011;22715;52.182;21.206;2023-02-08T11:31:38;3.13;;;2.15;;
36745;SDS011;22715;52.182;21.206;2023-02-08T11:34:08;3.85;;;1.85;;
36745;SDS011;22715;52.182;21.206;2023-02-08T11:36:35;4.72;;;1.80;;
36745;SDS011;22715;52.182;21.206;2023-02-08T11:39:14;3.42;;;1.92;;
36745;SDS011;22715;52.182;21.206;2023-02-08T11:41:50;4.50;;;1.95;;
36745;SDS011;22715;52.182;21.206;2023-02-08T11:44:28;2.75;;;2.22;;
36745;SDS011;22715;52.182;21.206;2023-02-08T11:46:55;4.13;;;2.05;;
36745;SDS011;22715;52.182;21.206;2023-02-08T11:51:58;3.20;;;1.80;;
36745;SDS011;22715;52.182;21.206;2023-02-08T11:54:34;5.22;;;2.38;;
36745;SDS011;22715;52.182;21.206;2023-02-08T11:57:01;4.82;;;2.80;;
36745;SDS011;22715;52.182;21.206;2023-02-08T11:59:26;3.55;;;1.98;;
36745;SDS011;22715;52.182;21.206;2023-02-08T12:01:53;3.60;;;2.30;;
36745;SDS011;22715;52.182;21.206;2023-02-08T12:04:19;2.63;;;1.85;;
36745;SDS011;22715;52.182;21.206;2023-02-08T12:11:40;2.15;;;1.73;;
36745;SDS011;22715;52.182;21.206;2023-02-08T12:22:22;2.30;;;1.60;;
36745;SDS011;22715;52.182;21.206;2023-02-08T12:28:21;3.20;;;1.98;;
36745;SDS011;22715;52.182;21.206;2023-02-08T12:30:23;2.10;;;1.67;;
36745;SDS011;22715;52.182;21.206;2023-02-08T12:38:01;4.38;;;2.00;;
36745;SDS011;22715;52.182;21.206;2023-02-08T12:40:52;3.72;;;2.08;;
36745;SDS011;22715;52.182;21.206;2023-02-08T12:43:44;4.68;;;1.95;;
36745;SDS011;22715;52.182;21.206;2023-02-08T12:54:49;3.78;;;1.85;;
36745;SDS011;22715;52.182;21.206;2023-02-08T12:56:54;4.70;;;2.88;;
36745;SDS011;22715;52.182;21.206;2023-02-08T13:01:56;2.22;;;1.58;;
36745;SDS011;22715;52.182;21.206;2023-02-08T13:04:26;4.60;;;2.28;;
36745;SDS011;22715;52.182;21.206;2023-02-08T13:06:56;4.20;;;2.00;;
36745;SDS011;22715;52.182;21.206;2023-02-08T13:11:50;3.42;;;2.13;;
36745;SDS011;22715;52.182;21.206;2023-02-08T13:16:52;4.30;;;1.80;;
36745;SDS011;22715;52.182;21.206;2023-02-08T13:19:25;5.72;;;2.40;;
36745;SDS011;22715;52.182;21.206;2023-02-08T13:21:54;4.45;;;2.40;;
36745;SDS011;22715;52.182;21.206;2023-02-08T13:24:32;3.90;;;2.30;;
36745;SDS011;22715;52.182;21.206;2023-02-08T13:26:58;3.10;;;2.20;;
36745;SDS011;22715;52.182;21.206;2023-02-08T13:29:23;3.55;;;2.58;;
36745;SDS011;22715;52.182;21.206;2023-02-08T13:31:53;4.40;;;2.45;;
36745;SDS011;22715;52.182;21.206;2023-02-08T13:37:22;3.47;;;2.45;;
36745;SDS011;22715;52.182;21.206;2023-02-08T13:39:48;4.95;;;2.65;;
36745;SDS011;22715;52.182;21.206;2023-02-08T13:42:28;5.20;;;2.42;;
36745;SDS011;22715;52.182;21.206;2023-02-08T13:44:55;8.15;;;3.03;;
36745;SDS011;22715;52.182;21.206;2023-02-08T13:47:31;6.40;;;3.08;;
36745;SDS011;22715;52.182;21.206;2023-02-08T13:50:00;5.25;;;3.15;;
36745;SDS011;22715;52.182;21.206;2023-02-08T13:57:51;5.47;;;2.60;;
36745;SDS011;22715;52.182;21.206;2023-02-08T14:00:21;4.95;;;2.83;;
36745;SDS011;22715;52.182;21.206;2023-02-08T14:03:00;4.60;;;2.97;;
36745;SDS011;22715;52.182;21.206;2023-02-08T14:05:33;3.50;;;2.47;;
36745;SDS011;22715;52.182;21.206;2023-02-08T14:08:03;5.82;;;3.13;;
36745;SDS011;22715;52.182;21.206;2023-02-08T14:15:38;5.43;;;2.58;;
36745;SDS011;22715;52.182;21.206;2023-02-08T14:18:04;4.80;;;3.10;;
36745;SDS011;22715;52.182;21.206;2023-02-08T14:20:59;5.35;;;3.13;;
36745;SDS011;22715;52.182;21.206;2023-02-08T14:23:25;5.60;;;3.85;;
36745;SDS011;22715;52.182;21.206;2023-02-08T14:25:51;4.95;;;3.40;;
36745;SDS011;22715;52.182;21.206;2023-02-08T14:28:31;8.90;;;3.28;;
36745;SDS011;22715;52.182;21.206;2023-02-08T14:30:58;4.25;;;2.60;;
36745;SDS011;22715;52.182;21.206;2023-02-08T14:33:25;6.20;;;3.90;;
36745;SDS011;22715;52.182;21.206;2023-02-08T14:35:54;7.57;;;4.55;;
36745;SDS011;22715;52.182;21.206;2023-02-08T14:45:42;8.68;;;5.47;;
36745;SDS011;22715;52.182;21.206;2023-02-08T14:48:18;6.88;;;3.70;;
36745;SDS011;22715;52.182;21.206;2023-02-08T14:56:06;7.60;;;3.33;;
36745;SDS011;22715;52.182;21.206;2023-02-08T14:58:41;6.40;;;3.30;;
36745;SDS011;22715;52.182;21.206;2023-02-08T15:01:23;5.32;;;3.03;;
36745;SDS011;22715;52.182;21.206;2023-02-08T15:03:55;17.92;;;5.05;;
36745;SDS011;22715;52.182;21.206;2023-02-08T15:09:23;5.60;;;3.40;;
36745;SDS011;22715;52.182;21.206;2023-02-08T15:11:58;6.38;;;4.10;;
36745;SDS011;22715;52.182;21.206;2023-02-08T15:14:24;16.50;;;7.50;;
36745;SDS011;22715;52.182;21.206;2023-02-08T15:19:26;16.85;;;7.50;;
36745;SDS011;22715;52.182;21.206;2023-02-08T15:21:52;16.65;;;7.50;;
36745;SDS011;22715;52.182;21.206;2023-02-08T15:24:19;16.42;;;8.30;;
36745;SDS011;22715;52.182;21.206;2023-02-08T15:26:47;12.15;;;6.82;;
36745;SDS011;22715;52.182;21.206;2023-02-08T15:29:17;16.40;;;7.55;;
36745;SDS011;22715;52.182;21.206;2023-02-08T15:31:42;17.02;;;7.63;;
36745;SDS011;22715;52.182;21.206;2023-02-08T15:34:08;21.02;;;12.27;;
36745;SDS011;22715;52.182;21.206;2023-02-08T15:36:35;37.30;;;18.63;;
36745;SDS011;22715;52.182;21.206;2023-02-08T15:39:02;36.97;;;16.75;;
36745;SDS011;22715;52.182;21.206;2023-02-08T15:41:31;57.20;;;23.58;;
36745;SDS011;22715;52.182;21.206;2023-02-08T15:46:24;60.80;;;27.65;;
36745;SDS011;22715;52.182;21.206;2023-02-08T15:48:55;73.68;;;32.92;;
36745;SDS011;22715;52.182;21.206;2023-02-08T15:51:24;48.22;;;20.33;;
36745;SDS011;22715;52.182;21.206;2023-02-08T15:53:53;19.17;;;8.43;;
36745;SDS011;22715;52.182;21.206;2023-02-08T15:56:21;7.05;;;4.70;;
36745;SDS011;22715;52.182;21.206;2023-02-08T15:58:48;7.53;;;4.45;;
36745;SDS011;22715;52.182;21.206;2023-02-08T16:03:47;20.23;;;10.40;;
36745;SDS011;22715;52.182;21.206;2023-02-08T16:06:19;13.93;;;7.93;;
36745;SDS011;22715;52.182;21.206;2023-02-08T16:08:44;14.98;;;5.82;;
36745;SDS011;22715;52.182;21.206;2023-02-08T16:11:14;26.60;;;13.05;;
36745;SDS011;22715;52.182;21.206;2023-02-08T16:13:45;28.35;;;13.88;;
36745;SDS011;22715;52.182;21.206;2023-02-08T16:16:22;19.52;;;9.93;;
36745;SDS011;22715;52.182;21.206;2023-02-08T16:24:33;25.95;;;12.43;;
36745;SDS011;22715;52.182;21.206;2023-02-08T16:29:22;27.25;;;14.57;;
36745;SDS011;22715;52.182;21.206;2023-02-08T16:31:48;38.92;;;16.25;;
36745;SDS011;22715;52.182;21.206;2023-02-08T16:34:20;61.83;;;30.02;;
36745;SDS011;22715;52.182;21.206;2023-02-08T16:36:48;70.50;;;29.98;;
36745;SDS011;22715;52.182;21.206;2023-02-08T16:44:25;33.33;;;13.02;;
36745;SDS011;22715;52.182;21.206;2023-02-08T16:46:50;21.60;;;12.27;;
36745;SDS011;22715;52.182;21.206;2023-02-08T16:49:15;26.73;;;13.60;;
36745;SDS011;22715;52.182;21.206;2023-02-08T16:51:41;26.48;;;15.93;;
36745;SDS011;22715;52.182;21.206;2023-02-08T16:54:13;33.10;;;15.30;;
36745;SDS011;22715;52.182;21.206;2023-02-08T16:56:39;58.75;;;24.27;;
36745;SDS011;22715;52.182;21.206;2023-02-08T16:59:05;25.10;;;15.10;;
36745;SDS011;22715;52.182;21.206;2023-02-08T17:01:31;22.63;;;13.52;;
36745;SDS011;22715;52.182;21.206;2023-02-08T17:03:57;33.17;;;15.20;;
36745;SDS011;22715;52.182;21.206;2023-02-08T17:08:50;36.22;;;20.40;;
36745;SDS011;22715;52.182;21.206;2023-02-08T17:11:16;30.67;;;16.38;;
36745;SDS011;22715;52.182;21.206;2023-02-08T17:13:41;35.25;;;18.83;;
36745;SDS011;22715;52.182;21.206;2023-02-08T17:16:08;44.78;;;19.00;;